Time;durP1;ratioP1;P1;durP2;ratioP2;P2;SDS_P1;SDS_P2;PMS_P1;PMS_P2;Temp;Humidity;BMP_temperature;BMP_pressure;BME280_temperature;BME280_humidity;BME280_pressure;Samples;Min_cycle;Max_cycle;Signal;HPM_P1;HPM_P2
2023/02/11 00:00:07;;;;;;;29.67;15.60;;;3.30;99.90;;;;;;5032294;28;20229;-71
2023/02/11 00:02:34;;;;;;;32.37;15.00;;;3.40;99.90;;;;;;5017558;28;20234;-71
2023/02/11 00:05:01;;;;;;;32.03;15.43;;;3.40;99.90;;;;;;5031370;28;20546;-70
2023/02/11 00:07:33;;;;;;;31.90;16.70;;;3.40;99.90;;;;;;5018088;28;20301;-71
2023/02/11 00:09:59;;;;;;;31.80;16.40;;;3.50;99.90;;;;;;5027235;28;20474;-69
2023/02/11 00:12:25;;;;;;;33.10;15.90;;;3.50;99.90;;;;;;5032762;28;20465;-69
2023/02/11 00:14:51;;;;;;;33.33;16.93;;;3.50;99.90;;;;;;5036453;28;20476;-69
2023/02/11 00:17:16;;;;;;;34.00;15.50;;;3.50;99.90;;;;;;5025972;28;20492;-68
2023/02/11 00:19:42;;;;;;;36.93;18.07;;;3.40;99.90;;;;;;5019491;28;20570;-68
2023/02/11 00:22:08;;;;;;;29.30;16.37;;;3.40;99.90;;;;;;5032363;28;20234;-69
2023/02/11 00:24:35;;;;;;;31.00;15.77;;;3.30;99.90;;;;;;5009747;28;20320;-69
2023/02/11 00:27:01;;;;;;;34.30;16.60;;;3.30;99.90;;;;;;5036710;28;20457;-67
2023/02/11 00:29:28;;;;;;;27.30;14.30;;;3.30;99.90;;;;;;5039834;28;20456;-68
2023/02/11 00:31:54;;;;;;;39.47;18.23;;;3.40;99.90;;;;;;5043314;28;20460;-68
2023/02/11 00:34:23;;;;;;;23.80;13.47;;;3.40;99.90;;;;;;5017858;28;20457;-69
2023/02/11 00:36:48;;;;;;;29.77;16.20;;;3.40;99.90;;;;;;5023398;28;20967;-68
2023/02/11 00:39:14;;;;;;;30.83;17.07;;;3.40;99.90;;;;;;5032493;28;20215;-69
2023/02/11 00:41:40;;;;;;;32.53;16.77;;;3.40;99.90;;;;;;5037136;28;20217;-69
2023/02/11 00:44:06;;;;;;;36.70;15.00;;;3.40;99.90;;;;;;5043433;28;20288;-69
2023/02/11 00:46:31;;;;;;;28.90;14.77;;;3.40;99.90;;;;;;5016655;28;20234;-68
2023/02/11 00:48:57;;;;;;;27.70;14.10;;;3.40;99.90;;;;;;5041028;28;20229;-69
2023/02/11 00:51:24;;;;;;;38.97;16.77;;;3.50;99.90;;;;;;5030897;28;20227;-68
2023/02/11 00:53:50;;;;;;;29.87;15.53;;;3.40;99.90;;;;;;5031498;28;20303;-69
2023/02/11 00:56:16;;;;;;;32.80;17.40;;;3.40;99.90;;;;;;5038961;28;20542;-69
2023/02/11 00:58:42;;;;;;;34.57;16.97;;;3.30;99.90;;;;;;5025354;28;20230;-69
2023/02/11 01:01:07;;;;;;;33.50;16.37;;;3.20;99.90;;;;;;5034460;28;20841;-69
2023/02/11 01:03:33;;;;;;;28.97;14.20;;;3.30;99.90;;;;;;5044667;28;20234;-69
2023/02/11 01:05:59;;;;;;;34.07;17.47;;;3.40;99.90;;;;;;5043067;28;20258;-70
2023/02/11 01:08:25;;;;;;;30.00;15.13;;;3.40;99.90;;;;;;5038484;28;20555;-70
2023/02/11 01:10:57;;;;;;;31.30;15.87;;;3.40;99.90;;;;;;5037952;28;20222;-69
2023/02/11 01:13:24;;;;;;;36.40;16.53;;;3.40;99.90;;;;;;5039329;28;20462;-70
2023/02/11 01:15:52;;;;;;;24.80;15.40;;;3.40;99.90;;;;;;5042569;28;20556;-70
2023/02/11 01:18:18;;;;;;;27.33;15.97;;;3.50;99.90;;;;;;5039316;28;20471;-70
2023/02/11 01:20:44;;;;;;;28.87;14.20;;;3.60;99.90;;;;;;5034799;28;20528;-70
2023/02/11 01:23:10;;;;;;;28.03;15.97;;;3.60;99.90;;;;;;5039340;28;20721;-69
2023/02/11 01:25:35;;;;;;;32.53;16.03;;;3.60;99.90;;;;;;5026088;28;20257;-70
2023/02/11 01:28:02;;;;;;;27.23;16.13;;;3.50;99.90;;;;;;5042082;28;20523;-69
2023/02/11 01:30:30;;;;;;;29.03;14.83;;;3.50;99.90;;;;;;5037763;28;20449;-70
2023/02/11 01:32:56;;;;;;;38.20;17.00;;;3.50;99.90;;;;;;5042380;28;20976;-70
2023/02/11 01:35:21;;;;;;;27.17;16.13;;;3.50;99.90;;;;;;5018142;28;20465;-70
2023/02/11 01:37:47;;;;;;;33.47;16.40;;;3.60;99.90;;;;;;5038634;28;20257;-69
2023/02/11 01:40:16;;;;;;;30.00;16.10;;;3.60;99.90;;;;;;5018537;28;20246;-70
2023/02/11 01:42:42;;;;;;;27.10;14.57;;;3.70;99.90;;;;;;5045838;28;20238;-69
2023/02/11 01:45:47;;;;;;;30.27;15.40;;;3.70;99.90;;;;;;5043330;28;20556;-69
2023/02/11 01:48:35;;;;;;;34.40;16.37;;;3.70;99.90;;;;;;5055605;28;20977;-70
2023/02/11 01:51:15;;;;;;;32.97;16.67;;;3.60;99.90;;;;;;5046774;28;20549;-69
2023/02/11 01:59:21;;;;;;;32.47;15.10;;;3.60;99.90;;;;;;5038521;28;20464;-70
2023/02/11 02:01:55;;;;;;;34.13;15.40;;;3.60;99.90;;;;;;5024034;28;20485;-69
2023/02/11 02:04:26;;;;;;;29.73;15.63;;;3.50;99.90;;;;;;5040675;28;20460;-69
2023/02/11 02:06:58;;;;;;;30.33;15.80;;;3.50;99.90;;;;;;5046356;28;20474;-69
2023/02/11 02:09:28;;;;;;;30.00;14.77;;;3.50;99.90;;;;;;5008143;28;20498;-69
2023/02/11 02:11:53;;;;;;;37.60;17.80;;;3.40;99.90;;;;;;5029045;28;20457;-69
2023/02/11 02:14:19;;;;;;;30.27;15.43;;;3.40;99.90;;;;;;5042695;28;20486;-69
2023/02/11 02:16:45;;;;;;;31.00;16.10;;;3.40;99.90;;;;;;5047201;28;20226;-69
2023/02/11 02:19:50;;;;;;;27.97;14.53;;;3.40;99.90;;;;;;5043353;28;20355;-68
2023/02/11 02:22:37;;;;;;;29.83;13.90;;;3.50;99.90;;;;;;5033712;28;20479;-69
2023/02/11 02:25:18;;;;;;;30.87;15.20;;;3.50;99.90;;;;;;5027252;28;20453;-70
2023/02/11 02:27:50;;;;;;;29.00;16.37;;;3.40;99.90;;;;;;5021905;28;20557;-68
2023/02/11 02:30:36;;;;;;;36.33;16.67;;;3.40;99.90;;;;;;5035342;28;20472;-68
2023/02/11 02:33:15;;;;;;;30.17;15.63;;;3.40;99.90;;;;;;5045489;28;20514;-69
2023/02/11 02:36:13;;;;;;;36.70;15.90;;;3.40;99.90;;;;;;5047202;28;20468;-69
2023/02/11 02:38:56;;;;;;;29.77;14.27;;;3.40;99.90;;;;;;5042476;28;20824;-70
2023/02/11 02:41:33;;;;;;;31.53;15.00;;;3.40;99.90;;;;;;5043472;28;20502;-70
2023/02/11 02:43:59;;;;;;;28.53;14.40;;;3.40;99.90;;;;;;5041646;28;20478;-70
2023/02/11 02:46:28;;;;;;;35.80;16.60;;;3.40;99.90;;;;;;5036856;28;20516;-70
2023/02/11 02:48:54;;;;;;;29.67;17.27;;;3.40;99.90;;;;;;5028258;28;20509;-69
2023/02/11 02:51:38;;;;;;;32.93;15.30;;;3.40;99.90;;;;;;5041812;28;20615;-70
2023/02/11 02:54:21;;;;;;;31.63;14.50;;;3.40;99.90;;;;;;5045474;28;20482;-70
2023/02/11 02:56:52;;;;;;;30.67;15.10;;;3.40;99.90;;;;;;5026679;28;20507;-69
2023/02/11 02:59:23;;;;;;;30.27;15.37;;;3.40;99.90;;;;;;5042309;28;20564;-69
2023/02/11 03:02:09;;;;;;;27.77;13.83;;;3.40;99.90;;;;;;5027253;28;20509;-69
2023/02/11 03:04:53;;;;;;;31.43;15.30;;;3.40;99.90;;;;;;5027242;28;20457;-70
2023/02/11 03:07:54;;;;;;;34.53;14.07;;;3.40;99.90;;;;;;5036432;28;20567;-69
2023/02/11 03:10:24;;;;;;;30.27;15.03;;;3.40;99.90;;;;;;5040338;28;20453;-69
2023/02/11 03:12:52;;;;;;;26.67;14.77;;;3.50;99.90;;;;;;5044616;28;20465;-69
2023/02/11 03:15:21;;;;;;;32.93;17.10;;;3.50;99.90;;;;;;5041810;28;20989;-69
2023/02/11 03:17:50;;;;;;;28.93;14.40;;;3.50;99.90;;;;;;5046329;28;20461;-69
2023/02/11 03:20:19;;;;;;;33.60;15.77;;;3.40;99.90;;;;;;5024521;28;20457;-69
2023/02/11 03:23:07;;;;;;;25.03;14.93;;;3.40;99.90;;;;;;5028233;28;20469;-69
2023/02/11 03:25:40;;;;;;;31.17;16.40;;;3.40;99.90;;;;;;5021781;28;20465;-69
2023/02/11 03:28:30;;;;;;;30.73;16.13;;;3.40;99.90;;;;;;5024499;28;20459;-69
2023/02/11 03:31:03;;;;;;;30.63;15.87;;;3.50;99.90;;;;;;5043061;28;20548;-69
2023/02/11 03:33:45;;;;;;;28.20;14.90;;;3.40;99.90;;;;;;5038855;28;20457;-69
2023/02/11 03:36:17;;;;;;;32.50;15.20;;;3.40;99.90;;;;;;5041459;28;20555;-69
2023/02/11 03:38:48;;;;;;;28.67;14.60;;;3.40;99.90;;;;;;5026213;28;20833;-69
2023/02/11 03:41:17;;;;;;;30.10;15.30;;;3.50;99.90;;;;;;5042419;28;20469;-70
2023/02/11 03:43:49;;;;;;;25.30;13.97;;;3.50;99.90;;;;;;5022540;28;20479;-69
2023/02/11 03:46:18;;;;;;;29.77;14.63;;;3.50;99.90;;;;;;5041104;28;20461;-69
2023/02/11 03:48:48;;;;;;;32.87;15.40;;;3.50;99.90;;;;;;5043715;28;20465;-69
2023/02/11 03:51:15;;;;;;;26.50;14.23;;;3.50;99.90;;;;;;5034657;28;20526;-69
2023/02/11 03:53:44;;;;;;;26.53;13.03;;;3.50;99.90;;;;;;5044312;28;20972;-66
2023/02/11 03:56:14;;;;;;;33.43;14.87;;;3.50;99.90;;;;;;5038096;28;20530;-68
2023/02/11 03:58:40;;;;;;;31.80;15.10;;;3.50;99.90;;;;;;5047121;28;20495;-70
2023/02/11 04:01:08;;;;;;;24.37;13.87;;;3.50;99.90;;;;;;5024340;28;20532;-69
2023/02/11 04:03:34;;;;;;;28.53;15.03;;;3.50;99.90;;;;;;5023497;28;20230;-69
2023/02/11 04:06:00;;;;;;;30.87;15.17;;;3.50;99.90;;;;;;5039546;28;20479;-69
2023/02/11 04:08:25;;;;;;;28.90;14.60;;;3.50;99.90;;;;;;5037570;28;20223;-69
2023/02/11 04:10:51;;;;;;;28.90;15.27;;;3.50;99.90;;;;;;5033783;28;20272;-70
2023/02/11 04:13:16;;;;;;;27.63;14.47;;;3.50;99.90;;;;;;5023448;28;20217;-70
2023/02/11 04:15:42;;;;;;;31.37;16.27;;;3.50;99.90;;;;;;5027064;28;20265;-70
2023/02/11 04:18:08;;;;;;;27.80;15.30;;;3.50;99.90;;;;;;5024215;28;20233;-70
2023/02/11 04:20:33;;;;;;;30.87;15.00;;;3.50;99.90;;;;;;5045132;28;20253;-70
2023/02/11 04:22:59;;;;;;;31.30;13.97;;;3.40;99.90;;;;;;5042159;28;20318;-70
2023/02/11 04:25:25;;;;;;;32.17;16.60;;;3.40;99.90;;;;;;5023651;28;20286;-69
2023/02/11 04:27:51;;;;;;;31.93;15.37;;;3.40;99.90;;;;;;5023620;28;20226;-69
2023/02/11 04:30:16;;;;;;;31.53;15.97;;;3.40;99.90;;;;;;5023188;28;20219;-70
2023/02/11 04:32:42;;;;;;;30.90;15.77;;;3.30;99.90;;;;;;5041588;28;20233;-69
2023/02/11 04:35:08;;;;;;;29.37;15.77;;;3.30;99.90;;;;;;5038212;28;20772;-70
2023/02/11 04:37:34;;;;;;;26.73;14.83;;;3.20;99.90;;;;;;5041352;28;20227;-69
2023/02/11 04:40:00;;;;;;;33.07;15.63;;;3.20;99.90;;;;;;5039852;28;20308;-70
2023/02/11 04:42:26;;;;;;;28.87;14.60;;;3.30;99.90;;;;;;5022595;28;20572;-70
2023/02/11 04:44:51;;;;;;;26.83;14.93;;;3.20;99.90;;;;;;5043010;28;20329;-70
2023/02/11 04:47:17;;;;;;;29.50;14.40;;;3.30;99.90;;;;;;5027235;28;20221;-70
2023/02/11 04:49:43;;;;;;;26.00;13.83;;;3.30;99.90;;;;;;5038272;28;20329;-69
2023/02/11 04:52:08;;;;;;;31.30;14.80;;;3.30;99.90;;;;;;5039757;28;20219;-70
2023/02/11 04:54:34;;;;;;;28.00;12.60;;;3.40;99.90;;;;;;5026836;28;20705;-70
2023/02/11 04:57:00;;;;;;;30.00;16.77;;;3.50;99.90;;;;;;5042269;28;20218;-69
2023/02/11 04:59:26;;;;;;;28.63;13.03;;;3.60;99.90;;;;;;5038663;28;20219;-70
2023/02/11 05:01:51;;;;;;;24.10;12.07;;;3.60;99.90;;;;;;5024449;28;20219;-70
2023/02/11 05:04:17;;;;;;;25.90;13.40;;;3.70;99.90;;;;;;5020170;28;21014;-70
2023/02/11 05:06:43;;;;;;;29.40;13.20;;;3.80;99.90;;;;;;5033473;28;20249;-69
2023/02/11 05:09:10;;;;;;;23.40;12.40;;;3.70;99.90;;;;;;5037923;28;20572;-70
2023/02/11 05:11:38;;;;;;;35.40;14.30;;;3.60;99.90;;;;;;5044087;28;20229;-70
2023/02/11 05:14:05;;;;;;;23.17;12.43;;;3.50;99.90;;;;;;5043547;28;20537;-69
2023/02/11 05:16:31;;;;;;;32.23;14.50;;;3.50;99.90;;;;;;5040327;28;20465;-67
2023/02/11 05:18:57;;;;;;;28.67;14.90;;;3.50;99.90;;;;;;5040722;28;20493;-69
2023/02/11 05:21:23;;;;;;;31.00;13.57;;;3.50;99.90;;;;;;5030602;28;20488;-70
2023/02/11 05:23:49;;;;;;;27.57;13.77;;;3.50;99.90;;;;;;5039353;28;20250;-68
2023/02/11 05:26:15;;;;;;;23.87;13.07;;;3.50;99.90;;;;;;5026958;28;20988;-69
2023/02/11 05:28:42;;;;;;;27.47;14.00;;;3.50;99.90;;;;;;5040025;28;20213;-68
2023/02/11 05:31:08;;;;;;;28.43;14.07;;;3.50;99.90;;;;;;5017769;28;20465;-69
2023/02/11 05:33:34;;;;;;;28.33;14.73;;;3.50;99.90;;;;;;5044053;28;20982;-68
2023/02/11 05:36:02;;;;;;;36.03;14.87;;;3.50;99.90;;;;;;5025876;28;20226;-69
2023/02/11 05:38:28;;;;;;;26.60;13.50;;;3.50;99.90;;;;;;5022465;28;21152;-69
2023/02/11 05:40:54;;;;;;;28.83;14.03;;;3.50;99.90;;;;;;5041942;28;20463;-68
2023/02/11 05:43:20;;;;;;;27.60;14.47;;;3.60;99.90;;;;;;5036808;28;20915;-69
2023/02/11 05:45:45;;;;;;;26.33;14.70;;;3.50;99.90;;;;;;5053236;28;20468;-69
2023/02/11 05:48:11;;;;;;;26.57;14.90;;;3.50;99.90;;;;;;5042208;28;20707;-68
2023/02/11 05:50:37;;;;;;;29.60;15.07;;;3.50;99.90;;;;;;5033713;28;20219;-67
2023/02/11 05:53:04;;;;;;;28.27;14.10;;;3.50;99.90;;;;;;5042456;28;21015;-68
2023/02/11 05:55:30;;;;;;;28.50;15.80;;;3.50;99.90;;;;;;5038789;28;20249;-67
2023/02/11 05:57:55;;;;;;;21.90;13.93;;;3.40;99.90;;;;;;5037022;28;20494;-68
2023/02/11 06:00:21;;;;;;;25.17;13.23;;;3.30;99.90;;;;;;5037700;28;20225;-68
2023/02/11 06:02:47;;;;;;;28.03;12.90;;;3.40;99.90;;;;;;5036931;28;20248;-69
2023/02/11 06:05:12;;;;;;;34.80;14.90;;;3.50;99.90;;;;;;5040314;28;20224;-69
2023/02/11 06:07:38;;;;;;;27.97;13.20;;;3.50;99.90;;;;;;5043796;28;20222;-69
2023/02/11 06:10:04;;;;;;;24.93;13.80;;;3.60;99.90;;;;;;5039434;28;20223;-70
2023/02/11 06:12:30;;;;;;;21.70;12.40;;;3.50;99.90;;;;;;5030351;28;20234;-70
2023/02/11 06:14:55;;;;;;;28.27;13.77;;;3.40;99.90;;;;;;5042337;28;20469;-70
2023/02/11 06:17:22;;;;;;;21.17;12.30;;;3.50;99.90;;;;;;5026731;28;20229;-70
2023/02/11 06:19:48;;;;;;;31.27;13.43;;;3.50;99.90;;;;;;5029444;28;20721;-69
2023/02/11 06:22:14;;;;;;;36.93;14.17;;;3.50;99.90;;;;;;5039899;28;20509;-69
2023/02/11 06:24:40;;;;;;;23.80;12.00;;;3.50;99.90;;;;;;5025209;28;20468;-69
2023/02/11 06:27:05;;;;;;;26.83;12.67;;;3.60;99.90;;;;;;5039090;28;20472;-69
2023/02/11 06:29:31;;;;;;;26.70;13.67;;;3.60;99.90;;;;;;5042659;28;20219;-70
2023/02/11 06:31:57;;;;;;;25.90;12.53;;;3.50;99.90;;;;;;5045134;28;20222;-69
2023/02/11 06:34:22;;;;;;;25.57;13.53;;;3.50;99.90;;;;;;5024468;28;20222;-70
2023/02/11 06:36:48;;;;;;;21.20;12.93;;;3.60;99.90;;;;;;5040934;28;20239;-70
2023/02/11 06:39:13;;;;;;;27.67;14.67;;;3.60;99.90;;;;;;5030441;28;20215;-70
2023/02/11 06:41:39;;;;;;;21.70;12.07;;;3.50;99.90;;;;;;5032730;28;20237;-67
2023/02/11 06:44:05;;;;;;;28.57;13.47;;;3.50;99.90;;;;;;5028790;28;20783;-69
2023/02/11 06:46:31;;;;;;;23.00;14.13;;;3.50;99.90;;;;;;5037690;28;20230;-69
2023/02/11 06:48:57;;;;;;;25.13;14.17;;;3.40;99.90;;;;;;5035041;28;20464;-70
2023/02/11 06:51:23;;;;;;;28.83;14.00;;;3.50;99.90;;;;;;5040813;28;20580;-69
2023/02/11 06:53:49;;;;;;;26.93;14.53;;;3.50;99.90;;;;;;5045907;28;20250;-68
2023/02/11 06:56:20;;;;;;;24.20;13.57;;;3.30;99.90;;;;;;5036040;28;20281;-69
2023/02/11 06:58:46;;;;;;;22.10;12.97;;;3.40;99.90;;;;;;5041065;28;20724;-69
2023/02/11 07:01:14;;;;;;;22.07;13.13;;;3.40;99.90;;;;;;5024026;28;20555;-69
2023/02/11 07:03:42;;;;;;;26.30;14.10;;;3.50;99.90;;;;;;5028291;28;20465;-69
2023/02/11 07:06:11;;;;;;;25.57;13.77;;;3.60;99.90;;;;;;5038507;28;20499;-70
2023/02/11 07:08:38;;;;;;;21.20;12.43;;;3.50;99.90;;;;;;5027758;28;20466;-70
2023/02/11 07:11:23;;;;;;;28.30;14.30;;;3.50;99.90;;;;;;5046584;28;20457;-69
2023/02/11 07:13:49;;;;;;;26.03;12.50;;;3.40;99.90;;;;;;5045282;28;20461;-69
2023/02/11 07:16:17;;;;;;;27.07;13.03;;;3.40;99.90;;;;;;5017964;28;20499;-69
2023/02/11 07:18:44;;;;;;;25.33;14.20;;;3.30;99.90;;;;;;5028415;28;20472;-69
2023/02/11 07:21:12;;;;;;;28.00;15.33;;;3.40;99.90;;;;;;5042090;28;20464;-69
2023/02/11 07:23:39;;;;;;;31.83;14.80;;;3.30;99.90;;;;;;5040120;28;20481;-69
2023/02/11 07:26:11;;;;;;;26.43;13.60;;;3.30;99.90;;;;;;5040865;28;20540;-68
2023/02/11 07:28:37;;;;;;;30.50;15.87;;;3.30;99.90;;;;;;5027182;28;20865;-68
2023/02/11 07:31:13;;;;;;;22.43;13.33;;;3.30;99.90;;;;;;5045980;28;20448;-69
2023/02/11 07:33:41;;;;;;;25.97;13.67;;;3.30;99.90;;;;;;5028575;28;21009;-69
2023/02/11 07:36:09;;;;;;;26.10;14.10;;;3.30;99.90;;;;;;5016662;28;20463;-69
2023/02/11 07:38:36;;;;;;;23.93;13.27;;;3.30;99.90;;;;;;5045527;28;20443;-69
2023/02/11 07:41:08;;;;;;;26.17;13.07;;;3.40;99.90;;;;;;5043690;28;20456;-69
2023/02/11 07:43:34;;;;;;;27.13;12.57;;;3.40;99.90;;;;;;5043875;28;20466;-68
2023/02/11 07:46:07;;;;;;;23.90;12.53;;;3.40;99.90;;;;;;5044410;28;20555;-69
2023/02/11 07:48:33;;;;;;;27.03;12.43;;;3.50;99.90;;;;;;5022664;28;20452;-69
2023/02/11 07:51:13;;;;;;;29.67;13.50;;;3.50;99.90;;;;;;5044827;28;21025;-69
2023/02/11 07:53:39;;;;;;;27.20;12.83;;;3.50;99.90;;;;;;5025870;28;21032;-69
2023/02/11 07:56:06;;;;;;;27.33;14.00;;;3.50;99.90;;;;;;5036182;28;20468;-69
2023/02/11 07:58:32;;;;;;;24.30;13.63;;;3.60;99.90;;;;;;5027049;28;20470;-69
2023/02/11 08:01:09;;;;;;;26.63;13.60;;;3.60;99.90;;;;;;5044038;28;20474;-69
2023/02/11 08:03:36;;;;;;;25.43;13.50;;;3.60;99.90;;;;;;5042413;28;20230;-69
2023/02/11 08:06:08;;;;;;;27.53;12.57;;;3.60;99.90;;;;;;5046859;28;20496;-69
2023/02/11 08:08:34;;;;;;;24.40;12.70;;;3.70;99.90;;;;;;5035427;28;20462;-69
2023/02/11 08:11:08;;;;;;;28.57;14.53;;;3.70;99.90;;;;;;5041391;28;20469;-69
2023/02/11 08:13:34;;;;;;;28.13;13.70;;;3.70;99.90;;;;;;5032873;28;20460;-69
2023/02/11 08:16:00;;;;;;;35.27;13.07;;;3.80;99.90;;;;;;5037182;28;20460;-69
2023/02/11 08:18:25;;;;;;;26.70;14.93;;;3.80;99.90;;;;;;5039953;28;20469;-69
2023/02/11 08:20:51;;;;;;;28.53;14.00;;;3.80;99.90;;;;;;5030325;28;20239;-69
2023/02/11 08:23:16;;;;;;;23.23;12.80;;;3.80;99.90;;;;;;5013062;28;20219;-69
2023/02/11 08:25:42;;;;;;;28.83;14.93;;;3.80;99.90;;;;;;5040185;28;20227;-69
2023/02/11 08:28:08;;;;;;;29.87;14.70;;;3.80;99.90;;;;;;5028751;28;20697;-70
2023/02/11 08:30:34;;;;;;;27.27;14.90;;;3.80;99.90;;;;;;5038447;28;20218;-68
2023/02/11 08:33:00;;;;;;;23.83;12.70;;;3.80;99.90;;;;;;5017961;28;20217;-70
2023/02/11 08:35:25;;;;;;;24.33;13.17;;;3.80;99.90;;;;;;5038037;28;20483;-70
2023/02/11 08:37:52;;;;;;;29.80;18.27;;;3.80;99.90;;;;;;5050804;28;20597;-69
2023/02/11 08:40:17;;;;;;;33.77;18.97;;;3.90;99.90;;;;;;5033884;28;20237;-70
2023/02/11 08:42:43;;;;;;;26.97;16.27;;;4.00;99.90;;;;;;5041154;28;20470;-69
2023/02/11 08:45:09;;;;;;;35.43;15.83;;;4.10;99.90;;;;;;5033060;28;20470;-69
2023/02/11 08:47:36;;;;;;;30.33;14.97;;;4.20;99.90;;;;;;5033721;28;20221;-68
2023/02/11 08:50:02;;;;;;;29.37;15.30;;;4.30;99.90;;;;;;5042699;28;20530;-69
2023/02/11 08:52:28;;;;;;;28.20;15.70;;;4.40;99.90;;;;;;5038155;28;20610;-70
2023/02/11 08:54:53;;;;;;;22.70;14.23;;;4.50;99.90;;;;;;5040681;28;21053;-70
2023/02/11 08:57:19;;;;;;;26.90;15.00;;;4.50;99.90;;;;;;5045063;28;20214;-69
2023/02/11 08:59:45;;;;;;;32.53;16.23;;;4.50;99.90;;;;;;5040341;28;20227;-69
2023/02/11 09:02:12;;;;;;;24.80;13.20;;;4.50;99.90;;;;;;5010630;28;20252;-71
2023/02/11 09:04:38;;;;;;;28.10;16.00;;;4.50;99.90;;;;;;5040827;28;20230;-69
2023/02/11 09:07:04;;;;;;;34.17;16.70;;;4.50;99.90;;;;;;5041536;28;20456;-69
2023/02/11 09:09:29;;;;;;;26.47;13.67;;;4.50;99.90;;;;;;5030597;28;20223;-70
2023/02/11 09:11:56;;;;;;;31.27;15.30;;;4.60;99.90;;;;;;5016229;28;20223;-70
2023/02/11 09:14:23;;;;;;;28.43;15.60;;;4.70;99.90;;;;;;5013888;28;20230;-70
2023/02/11 09:16:50;;;;;;;28.70;16.13;;;4.80;99.90;;;;;;5028074;28;20822;-69
2023/02/11 09:19:16;;;;;;;29.93;17.00;;;4.80;99.90;;;;;;5026657;28;20463;-70
2023/02/11 09:21:42;;;;;;;32.30;16.97;;;4.80;99.90;;;;;;5031968;28;20461;-69
2023/02/11 09:24:08;;;;;;;36.80;17.00;;;4.90;99.90;;;;;;5017953;28;20476;-70
2023/02/11 09:26:35;;;;;;;33.40;16.87;;;5.00;99.90;;;;;;5034838;28;20798;-69
2023/02/11 09:29:02;;;;;;;35.57;18.80;;;5.10;99.90;;;;;;5036238;28;20462;-70
2023/02/11 09:31:29;;;;;;;37.80;16.90;;;5.20;99.90;;;;;;5020965;28;20472;-70
2023/02/11 09:33:58;;;;;;;31.07;15.07;;;5.40;99.90;;;;;;5030693;28;20462;-70
2023/02/11 09:36:27;;;;;;;27.80;15.10;;;5.40;99.90;;;;;;5028770;28;20473;-70
2023/02/11 09:38:53;;;;;;;30.40;16.43;;;5.50;99.90;;;;;;5029179;28;20477;-70
2023/02/11 09:41:22;;;;;;;35.73;17.50;;;5.50;99.90;;;;;;5028186;28;20556;-70
2023/02/11 09:43:50;;;;;;;34.20;18.90;;;5.50;99.90;;;;;;5048863;28;20475;-69
2023/02/11 09:46:18;;;;;;;36.33;22.17;;;5.50;99.90;;;;;;5031799;28;20493;-70
2023/02/11 09:48:46;;;;;;;28.33;16.60;;;5.60;99.90;;;;;;5035169;28;20522;-70
2023/02/11 09:51:25;;;;;;;30.13;15.47;;;5.60;99.90;;;;;;5031590;28;20533;-69
2023/02/11 09:53:57;;;;;;;26.37;14.70;;;5.60;99.90;;;;;;5032386;28;20460;-71
2023/02/11 09:56:24;;;;;;;27.70;14.50;;;5.60;99.90;;;;;;5032054;28;20473;-70
2023/02/11 09:58:49;;;;;;;25.83;13.60;;;5.60;99.90;;;;;;5017503;28;20476;-70
2023/02/11 10:01:49;;;;;;;27.47;14.50;;;5.70;99.90;;;;;;5026313;28;20470;-70
2023/02/11 10:04:43;;;;;;;21.90;13.10;;;5.70;99.90;;;;;;5037343;28;20321;-69
2023/02/11 10:07:15;;;;;;;23.17;13.03;;;5.70;99.90;;;;;;5036142;28;20518;-70
2023/02/11 10:10:06;;;;;;;25.57;13.73;;;5.70;99.90;;;;;;5042839;28;20520;-69
2023/02/11 10:13:03;;;;;;;25.97;12.60;;;5.80;99.90;;;;;;5030699;28;20479;-70
2023/02/11 10:15:29;;;;;;;21.30;12.60;;;5.80;99.90;;;;;;5054354;28;20603;-70
2023/02/11 10:18:10;;;;;;;20.33;12.50;;;5.90;99.90;;;;;;5043792;28;20548;-70
2023/02/11 10:20:38;;;;;;;29.23;12.50;;;5.90;99.90;;;;;;5043862;28;20219;-70
2023/02/11 10:23:39;;;;;;;32.80;13.70;;;6.00;99.90;;;;;;5040331;28;20490;-70
2023/02/11 10:26:13;;;;;;;26.53;13.30;;;6.10;99.90;;;;;;5049125;28;20477;-69
2023/02/11 10:28:43;;;;;;;25.07;13.23;;;6.20;99.90;;;;;;5028940;28;20473;-69
2023/02/11 10:31:16;;;;;;;25.00;13.87;;;6.20;99.90;;;;;;5036727;28;20457;-70
2023/02/11 10:33:59;;;;;;;20.80;13.23;;;6.20;99.90;;;;;;5030882;28;20473;-70
2023/02/11 10:36:31;;;;;;;19.63;11.60;;;6.20;99.90;;;;;;5031854;28;20544;-70
2023/02/11 10:39:19;;;;;;;23.13;12.57;;;6.20;99.90;;;;;;5026421;28;20458;-70
2023/02/11 10:41:49;;;;;;;24.47;11.27;;;6.30;99.90;;;;;;5033772;28;20485;-69
2023/02/11 10:44:39;;;;;;;21.60;12.40;;;6.30;99.90;;;;;;5032079;28;20604;-70
2023/02/11 10:47:13;;;;;;;26.80;12.70;;;6.30;99.90;;;;;;5020276;28;20926;-69
2023/02/11 10:49:44;;;;;;;23.13;12.70;;;6.30;99.90;;;;;;5039116;28;20487;-68
2023/02/11 10:52:29;;;;;;;25.37;13.10;;;6.40;99.90;;;;;;5036478;28;20473;-68
2023/02/11 10:54:58;;;;;;;36.30;18.73;;;6.40;99.90;;;;;;5017504;28;20450;-70
2023/02/11 10:57:29;;;;;;;25.27;12.50;;;6.40;99.90;;;;;;5030200;28;20454;-69
2023/02/11 11:00:04;;;;;;;28.77;16.63;;;6.40;99.90;;;;;;5032282;28;20474;-70
2023/02/11 11:02:33;;;;;;;28.50;18.13;;;6.40;99.90;;;;;;5029491;28;20502;-69
2023/02/11 11:05:17;;;;;;;31.40;17.43;;;6.50;99.90;;;;;;5032190;28;20497;-69
2023/02/11 11:07:58;;;;;;;21.80;14.10;;;6.40;99.90;;;;;;5042440;28;20457;-69
2023/02/11 11:10:42;;;;;;;24.70;13.23;;;6.40;99.90;;;;;;5035492;28;20461;-69
2023/02/11 11:13:32;;;;;;;21.63;12.53;;;6.40;99.90;;;;;;5038568;28;20476;-69
2023/02/11 11:16:13;;;;;;;25.97;12.93;;;6.50;99.90;;;;;;5042021;28;20457;-70
2023/02/11 11:19:07;;;;;;;19.43;10.37;;;6.50;99.90;;;;;;5038877;28;20554;-70
2023/02/11 11:21:43;;;;;;;17.70;10.43;;;6.50;99.90;;;;;;5031785;28;20479;-70
2023/02/11 11:24:41;;;;;;;19.67;11.20;;;6.50;99.90;;;;;;5049269;28;20610;-70
2023/02/11 11:27:17;;;;;;;24.37;11.90;;;6.60;99.90;;;;;;5041187;28;20465;-69
2023/02/11 11:29:54;;;;;;;17.90;10.07;;;6.60;99.90;;;;;;5043330;28;20536;-69
2023/02/11 11:32:31;;;;;;;18.07;11.03;;;6.70;99.90;;;;;;5039963;28;20468;-70
2023/02/11 11:35:04;;;;;;;17.60;9.90;;;6.70;99.90;;;;;;5024085;28;20472;-70
2023/02/11 11:37:35;;;;;;;24.07;11.33;;;6.70;99.90;;;;;;5019812;28;20472;-70
2023/02/11 11:40:09;;;;;;;19.83;11.87;;;6.70;99.90;;;;;;5030982;28;20500;-70
2023/02/11 11:42:37;;;;;;;21.27;11.27;;;6.70;99.90;;;;;;5043113;28;21116;-70
2023/02/11 11:45:14;;;;;;;23.47;12.40;;;6.80;99.90;;;;;;5042086;28;20485;-69
2023/02/11 11:47:46;;;;;;;18.27;11.43;;;6.80;99.90;;;;;;5025896;28;20466;-70
2023/02/11 11:50:33;;;;;;;21.07;11.27;;;6.80;99.90;;;;;;5039931;28;20866;-70
2023/02/11 11:53:09;;;;;;;23.27;11.37;;;6.90;99.90;;;;;;5024176;28;20874;-70
2023/02/11 11:55:47;;;;;;;22.50;13.10;;;7.00;99.90;;;;;;5035863;28;20541;-69
2023/02/11 11:58:18;;;;;;;19.30;10.83;;;7.20;99.90;;;;;;5029881;28;20468;-70
2023/02/11 12:00:52;;;;;;;23.07;11.80;;;7.50;99.90;;;;;;5026287;28;21124;-70
2023/02/11 12:03:45;;;;;;;19.93;11.10;;;7.60;99.90;;;;;;5031565;28;20481;-70
2023/02/11 12:06:28;;;;;;;21.30;11.73;;;7.70;99.90;;;;;;5023387;28;20464;-69
2023/02/11 12:09:08;;;;;;;23.50;11.87;;;7.80;99.90;;;;;;5039349;28;20545;-70
2023/02/11 12:11:53;;;;;;;15.70;10.60;;;7.80;99.90;;;;;;5025383;28;20973;-69
2023/02/11 12:14:37;;;;;;;19.77;9.97;;;7.70;99.90;;;;;;5021300;28;20518;-70
2023/02/11 12:17:27;;;;;;;15.50;10.23;;;7.70;99.90;;;;;;5037458;28;20975;-68
2023/02/11 12:20:02;;;;;;;20.47;11.97;;;7.60;99.90;;;;;;5052112;28;20452;-70
2023/02/11 12:22:51;;;;;;;22.83;13.50;;;7.70;99.90;;;;;;5018088;28;20448;-69
2023/02/11 12:25:34;;;;;;;14.87;9.63;;;7.70;99.90;;;;;;5035954;28;20448;-70
2023/02/11 12:28:00;;;;;;;15.97;10.20;;;7.70;99.90;;;;;;5040200;28;20457;-69
2023/02/11 12:30:51;;;;;;;16.17;8.83;;;7.60;99.90;;;;;;5032858;28;20574;-70
2023/02/11 12:33:38;;;;;;;16.20;9.10;;;7.70;99.90;;;;;;5044863;28;20269;-70
2023/02/11 12:36:24;;;;;;;14.07;8.70;;;7.70;99.90;;;;;;5042340;28;20505;-70
2023/02/11 12:38:56;;;;;;;14.77;8.57;;;7.70;99.90;;;;;;5046125;28;20461;-70
2023/02/11 12:44:33;;;;;;;13.40;8.93;;;7.70;99.90;;;;;;5046666;28;20481;-70
2023/02/11 12:47:48;;;;;;;16.73;7.37;;;7.70;99.90;;;;;;5031100;28;20465;-69
2023/02/11 12:50:41;;;;;;;13.17;8.10;;;7.70;99.90;;;;;;5010950;28;20516;-70
2023/02/11 12:53:13;;;;;;;14.73;8.20;;;7.70;99.90;;;;;;5047827;28;20515;-70
2023/02/11 12:55:45;;;;;;;17.57;8.93;;;7.70;99.90;;;;;;5048395;28;20483;-70
2023/02/11 12:58:34;;;;;;;15.10;7.93;;;7.70;99.90;;;;;;5038621;28;20466;-70
2023/02/11 13:01:06;;;;;;;13.77;7.23;;;7.80;99.90;;;;;;5041194;28;20469;-69
2023/02/11 13:03:43;;;;;;;11.03;7.30;;;7.80;99.90;;;;;;5019586;28;20545;-70
2023/02/11 13:06:16;;;;;;;13.87;8.70;;;7.80;99.90;;;;;;5048517;28;20511;-70